createdAt,value
2022-12-31T00:01:27.536Z,18.80
2022-12-31T00:03:56.050Z,19.40
2022-12-31T00:06:25.106Z,18.37
2022-12-31T00:08:54.139Z,19.23
2022-12-31T00:11:22.768Z,19.57
2022-12-31T00:13:50.677Z,19.27
2022-12-31T00:16:30.227Z,18.97
2022-12-31T00:18:59.363Z,19.20
2022-12-31T00:21:28.151Z,18.40
2022-12-31T00:23:56.001Z,19.47
2022-12-31T00:26:25.617Z,19.33
2022-12-31T00:28:55.214Z,17.90
2022-12-31T00:31:25.490Z,19.83
2022-12-31T00:33:52.755Z,19.67
2022-12-31T00:36:25.070Z,20.10
2022-12-31T00:38:54.415Z,19.97
2022-12-31T00:41:22.401Z,18.70
2022-12-31T00:43:49.840Z,20.37
2022-12-31T00:46:17.241Z,19.37
2022-12-31T00:48:44.389Z,18.37
2022-12-31T00:51:13.671Z,18.27
2022-12-31T00:53:41.531Z,18.13
2022-12-31T00:56:11.924Z,18.63
2022-12-31T00:58:39.422Z,19.27
2022-12-31T01:01:10.854Z,18.73
2022-12-31T01:03:38.571Z,17.90
2022-12-31T01:06:05.735Z,16.17
2022-12-31T01:08:33.130Z,17.83
2022-12-31T01:11:19.646Z,17.80
2022-12-31T01:13:47.198Z,17.10
2022-12-31T01:16:15.195Z,16.97
2022-12-31T01:18:42.813Z,17.30
2022-12-31T01:21:11.749Z,16.33
2022-12-31T01:23:39.252Z,15.87
2022-12-31T01:26:08.006Z,16.70
2022-12-31T01:28:35.322Z,15.33
2022-12-31T01:31:07.164Z,16.03
2022-12-31T01:33:34.431Z,14.97
2022-12-31T01:36:03.396Z,14.20
2022-12-31T01:38:30.543Z,15.93
2022-12-31T01:40:57.565Z,15.20
2022-12-31T01:43:40.835Z,15.20
2022-12-31T01:46:08.445Z,14.67
2022-12-31T01:48:35.553Z,14.17
2022-12-31T01:51:02.406Z,14.23
2022-12-31T01:53:29.462Z,15.30
2022-12-31T01:55:59.375Z,15.37
2022-12-31T01:58:36.677Z,14.37
2022-12-31T02:01:04.907Z,13.67
2022-12-31T02:03:32.228Z,13.43
2022-12-31T02:06:10.787Z,12.83
2022-12-31T02:08:41.934Z,12.90
2022-12-31T02:11:32.980Z,12.50
2022-12-31T02:14:05.886Z,13.10
2022-12-31T02:16:42.306Z,11.60
2022-12-31T02:19:46.439Z,12.50
2022-12-31T02:22:37.706Z,11.43
2022-12-31T02:25:42.336Z,12.07
2022-12-31T02:28:25.523Z,12.37
2022-12-31T02:31:01.607Z,11.63
2022-12-31T02:33:41.004Z,11.57
2022-12-31T02:36:23.976Z,10.40
2022-12-31T02:38:52.665Z,10.97
2022-12-31T02:41:39.524Z,10.37
2022-12-31T02:44:23.911Z,10.57
2022-12-31T02:47:09.490Z,10.80
2022-12-31T02:49:48.125Z,10.73
2022-12-31T02:52:33.128Z,10.77
2022-12-31T02:55:11.113Z,10.33
2022-12-31T02:57:53.234Z,11.27
2022-12-31T03:00:39.322Z,10.40
2022-12-31T03:03:07.983Z,10.43
2022-12-31T03:05:40.260Z,10.20
2022-12-31T03:08:08.532Z,11.17
2022-12-31T03:10:35.673Z,11.50
2022-12-31T03:13:03.061Z,10.00
2022-12-31T03:15:32.488Z,10.63
2022-12-31T03:18:02.209Z,9.93
2022-12-31T03:20:54.775Z,10.30
2022-12-31T03:23:26.200Z,11.10
2022-12-31T03:25:53.578Z,9.83
2022-12-31T03:28:24.576Z,9.33
2022-12-31T03:30:55.279Z,10.00
2022-12-31T03:33:23.458Z,11.17
2022-12-31T03:35:51.332Z,10.50
2022-12-31T03:38:19.308Z,10.40
2022-12-31T03:40:50.662Z,10.67
2022-12-31T03:43:19.538Z,9.87
2022-12-31T03:45:52.524Z,9.87
2022-12-31T03:48:21.643Z,9.67
2022-12-31T03:50:48.487Z,9.20
2022-12-31T03:53:15.953Z,9.27
2022-12-31T03:55:42.789Z,9.73
2022-12-31T03:58:09.780Z,9.17
2022-12-31T04:00:36.559Z,8.80
2022-12-31T04:03:03.795Z,9.47
2022-12-31T04:05:31.324Z,9.83
2022-12-31T04:07:58.467Z,9.17
2022-12-31T04:10:25.209Z,9.03
2022-12-31T04:12:52.243Z,9.00
2022-12-31T04:15:20.887Z,9.00
2022-12-31T04:17:48.671Z,9.10
2022-12-31T04:20:16.317Z,9.63
2022-12-31T04:22:44.192Z,9.50
2022-12-31T04:25:11.603Z,8.20
2022-12-31T04:27:40.579Z,8.67
2022-12-31T04:30:10.563Z,8.43
2022-12-31T04:32:37.713Z,8.43
2022-12-31T04:35:04.945Z,8.97
2022-12-31T04:37:31.942Z,8.47
2022-12-31T04:40:03.685Z,8.30
2022-12-31T04:42:33.303Z,7.93
2022-12-31T04:45:00.040Z,8.90
2022-12-31T04:47:27.074Z,7.10
2022-12-31T04:49:53.805Z,7.60
2022-12-31T04:52:20.970Z,7.47
2022-12-31T04:54:47.679Z,7.20
2022-12-31T04:57:14.789Z,7.10
2022-12-31T04:59:41.579Z,7.33
2022-12-31T05:02:08.795Z,7.23
2022-12-31T05:04:35.988Z,7.50
2022-12-31T05:07:03.166Z,7.40
2022-12-31T05:09:30.994Z,6.83
2022-12-31T05:11:58.049Z,7.03
2022-12-31T05:14:25.268Z,6.60
2022-12-31T05:16:53.879Z,6.70
2022-12-31T05:19:20.866Z,6.47
2022-12-31T05:22:07.936Z,6.50
2022-12-31T05:24:34.742Z,6.93
2022-12-31T05:27:02.121Z,6.57
2022-12-31T05:29:28.924Z,6.70
2022-12-31T05:31:55.865Z,6.40
2022-12-31T05:34:22.685Z,6.07
2022-12-31T05:36:49.742Z,6.33
2022-12-31T05:39:16.484Z,6.83
2022-12-31T05:41:43.553Z,6.80
2022-12-31T05:44:10.829Z,6.70
2022-12-31T05:46:37.894Z,6.53
2022-12-31T05:49:04.981Z,6.90
2022-12-31T05:51:32.238Z,6.57
2022-12-31T05:53:59.134Z,7.57
2022-12-31T05:56:26.180Z,6.50
2022-12-31T05:58:52.952Z,6.07
2022-12-31T06:01:20.109Z,6.50
2022-12-31T06:03:47.135Z,6.63
2022-12-31T06:06:14.204Z,6.20
2022-12-31T06:08:41.083Z,6.77
2022-12-31T06:11:08.153Z,6.20
2022-12-31T06:13:34.904Z,6.30
2022-12-31T06:16:06.756Z,6.37
2022-12-31T06:18:33.628Z,6.23
2022-12-31T06:21:00.819Z,6.23
2022-12-31T06:23:27.751Z,5.77
2022-12-31T06:25:54.793Z,6.10
2022-12-31T06:28:21.785Z,5.90
2022-12-31T06:30:49.039Z,5.97
2022-12-31T06:33:15.775Z,5.27
2022-12-31T06:35:42.796Z,6.40
2022-12-31T06:38:09.617Z,5.53
2022-12-31T06:40:37.657Z,5.63
2022-12-31T06:43:05.815Z,5.63
2022-12-31T06:45:32.840Z,5.70
2022-12-31T06:47:59.652Z,5.37
2022-12-31T06:50:26.696Z,5.73
2022-12-31T06:52:53.743Z,5.23
2022-12-31T06:55:21.074Z,5.60
2022-12-31T06:57:48.421Z,5.73
2022-12-31T07:00:16.242Z,5.10
2022-12-31T07:03:10.866Z,6.07
2022-12-31T07:06:02.186Z,4.97
2022-12-31T07:08:59.183Z,5.77
2022-12-31T07:11:35.562Z,5.10
2022-12-31T07:14:22.210Z,6.03
2022-12-31T07:17:00.385Z,5.27
2022-12-31T07:20:08.752Z,6.23
2022-12-31T07:22:36.031Z,5.23
2022-12-31T07:25:03.345Z,5.73
2022-12-31T07:28:04.524Z,5.90
2022-12-31T07:30:59.608Z,5.47
2022-12-31T07:33:59.700Z,5.10
2022-12-31T07:36:29.532Z,5.80
2022-12-31T07:39:11.736Z,5.10
2022-12-31T07:41:47.114Z,5.73
2022-12-31T07:44:26.210Z,5.03
2022-12-31T07:46:59.339Z,6.00
2022-12-31T07:49:29.174Z,5.57
2022-12-31T07:51:56.772Z,6.67
2022-12-31T07:54:23.810Z,6.03
2022-12-31T07:56:51.591Z,6.27
2022-12-31T07:59:45.967Z,6.40
2022-12-31T08:02:39.805Z,6.00
2022-12-31T08:05:31.117Z,6.00
2022-12-31T08:08:17.768Z,5.63
2022-12-31T08:11:02.782Z,6.40
2022-12-31T08:13:30.085Z,6.63
2022-12-31T08:15:57.405Z,5.80
2022-12-31T08:18:24.373Z,5.63
2022-12-31T08:21:10.131Z,5.77
2022-12-31T08:23:51.886Z,5.57
2022-12-31T08:26:31.342Z,5.23
2022-12-31T08:29:13.118Z,6.07
2022-12-31T08:31:54.633Z,4.80
2022-12-31T08:34:34.351Z,4.97
2022-12-31T08:37:15.258Z,6.37
2022-12-31T08:40:19.144Z,5.33
2022-12-31T08:42:52.065Z,5.03
2022-12-31T08:45:37.825Z,5.50
2022-12-31T08:48:25.664Z,5.53
2022-12-31T08:50:53.367Z,6.00
2022-12-31T08:53:20.874Z,5.13
2022-12-31T08:55:53.163Z,9.87
2022-12-31T08:58:32.255Z,6.87
2022-12-31T09:00:59.568Z,7.37
2022-12-31T09:03:42.095Z,6.10
2022-12-31T09:06:26.097Z,5.87
2022-12-31T09:09:17.544Z,5.83
2022-12-31T09:12:08.973Z,5.63
2022-12-31T09:14:55.441Z,7.07
2022-12-31T09:17:44.151Z,6.80
2022-12-31T09:20:45.229Z,5.90
2022-12-31T09:23:13.206Z,5.30
2022-12-31T09:25:51.764Z,4.90
2022-12-31T09:28:25.996Z,5.77
2022-12-31T09:31:14.794Z,4.87
2022-12-31T09:33:52.816Z,5.47
2022-12-31T09:36:43.535Z,5.73
2022-12-31T09:39:19.609Z,5.00
2022-12-31T09:41:49.455Z,5.27
2022-12-31T09:44:34.293Z,5.63
2022-12-31T09:47:11.150Z,4.73
2022-12-31T09:49:56.690Z,5.67
2022-12-31T09:52:47.406Z,6.93
2022-12-31T09:55:33.208Z,6.13
2022-12-31T09:58:24.830Z,6.40
2022-12-31T10:01:19.718Z,7.93
2022-12-31T10:04:08.012Z,6.67
2022-12-31T10:06:57.997Z,6.73
2022-12-31T10:10:00.694Z,7.63
2022-12-31T10:12:41.771Z,8.00
2022-12-31T10:15:11.875Z,8.07
2022-12-31T10:18:16.011Z,6.97
2022-12-31T10:20:56.179Z,6.43
2022-12-31T10:23:41.072Z,6.40
2022-12-31T10:26:19.202Z,6.73
2022-12-31T10:28:59.645Z,5.90
2022-12-31T10:31:48.713Z,5.97
2022-12-31T10:34:17.337Z,5.07
2022-12-31T10:37:10.346Z,6.27
2022-12-31T10:39:43.768Z,5.60
2022-12-31T10:42:29.629Z,6.23
2022-12-31T10:45:32.269Z,5.90
2022-12-31T10:48:36.380Z,5.33
2022-12-31T10:51:43.835Z,5.53
2022-12-31T10:54:16.945Z,5.07
2022-12-31T10:56:53.987Z,5.50
2022-12-31T10:59:54.145Z,5.10
2022-12-31T11:03:01.716Z,4.87
2022-12-31T11:06:08.122Z,4.70
2022-12-31T11:09:03.594Z,4.77
2022-12-31T11:12:28.825Z,4.30
2022-12-31T11:15:04.308Z,4.57
2022-12-31T11:17:46.832Z,5.03
2022-12-31T11:20:51.951Z,4.40
2022-12-31T11:23:40.010Z,4.33
2022-12-31T11:26:21.738Z,4.53
2022-12-31T11:29:03.034Z,3.83
2022-12-31T11:31:53.797Z,3.87
2022-12-31T11:34:38.732Z,4.33
2022-12-31T11:37:30.454Z,3.70
2022-12-31T11:40:06.253Z,3.47
2022-12-31T11:42:58.659Z,3.73
2022-12-31T11:45:45.657Z,3.40
2022-12-31T11:48:32.529Z,4.37
2022-12-31T11:51:25.363Z,3.90
2022-12-31T11:54:03.877Z,3.83
2022-12-31T11:56:41.174Z,3.90
2022-12-31T11:59:19.284Z,3.60
2022-12-31T12:01:59.743Z,3.40
2022-12-31T12:04:26.663Z,3.40
2022-12-31T12:06:53.666Z,3.23
2022-12-31T12:09:32.119Z,3.03
2022-12-31T12:12:02.008Z,3.22
2022-12-31T12:14:39.082Z,3.03
2022-12-31T12:17:22.316Z,3.50
2022-12-31T12:19:55.023Z,2.97
2022-12-31T12:22:27.193Z,3.17
2022-12-31T12:24:57.018Z,2.67
2022-12-31T12:27:28.913Z,2.73
2022-12-31T12:29:55.670Z,3.00
2022-12-31T12:32:25.765Z,2.63
2022-12-31T12:34:53.098Z,2.73
2022-12-31T12:37:36.386Z,2.53
2022-12-31T12:40:29.859Z,2.50
2022-12-31T12:43:01.543Z,2.70
2022-12-31T12:45:52.134Z,2.30
2022-12-31T12:48:29.455Z,2.67
2022-12-31T12:50:56.444Z,2.40
2022-12-31T12:53:29.573Z,2.50
2022-12-31T12:55:59.930Z,2.30
2022-12-31T12:58:49.379Z,2.20
2022-12-31T13:01:25.285Z,2.33
2022-12-31T13:04:35.024Z,2.50
2022-12-31T13:07:18.792Z,2.53
2022-12-31T13:10:17.592Z,2.55
2022-12-31T13:15:58.127Z,2.80
2022-12-31T13:18:48.945Z,2.10
2022-12-31T13:21:31.733Z,2.30
2022-12-31T13:24:40.373Z,2.30
2022-12-31T13:27:13.820Z,2.22
2022-12-31T13:29:44.261Z,2.67
2022-12-31T13:32:18.758Z,2.50
2022-12-31T13:34:49.708Z,2.17
2022-12-31T13:37:36.528Z,2.25
2022-12-31T13:40:18.102Z,2.55
2022-12-31T13:43:16.751Z,2.72
2022-12-31T13:45:47.568Z,2.45
2022-12-31T13:48:22.793Z,2.13
2022-12-31T13:51:01.530Z,2.10
2022-12-31T13:53:48.982Z,2.60
2022-12-31T13:56:23.933Z,2.30
2022-12-31T13:59:01.504Z,2.38
2022-12-31T14:01:34.412Z,2.17
2022-12-31T14:04:07.690Z,2.67
2022-12-31T14:06:43.876Z,2.35
2022-12-31T14:09:19.645Z,2.10
2022-12-31T14:12:04.789Z,2.92
2022-12-31T14:14:58.284Z,2.47
2022-12-31T14:17:59.260Z,2.67
2022-12-31T14:20:33.777Z,2.93
2022-12-31T14:23:10.275Z,3.22
2022-12-31T14:25:51.855Z,3.30
2022-12-31T14:28:26.502Z,3.03
2022-12-31T14:31:04.070Z,2.92
2022-12-31T14:33:53.776Z,2.85
2022-12-31T14:36:32.792Z,2.83
2022-12-31T14:39:27.718Z,3.08
2022-12-31T14:41:54.724Z,3.03
2022-12-31T14:44:42.697Z,2.80
2022-12-31T14:47:42.116Z,3.13
2022-12-31T14:50:17.406Z,2.88
2022-12-31T14:52:58.796Z,2.97
2022-12-31T14:55:29.851Z,2.72
2022-12-31T14:58:27.337Z,2.70
2022-12-31T15:00:58.083Z,2.90
2022-12-31T15:03:33.652Z,2.90
2022-12-31T15:06:37.598Z,3.03
2022-12-31T15:09:35.016Z,3.00
2022-12-31T15:12:26.726Z,3.00
2022-12-31T15:15:02.789Z,3.35
2022-12-31T15:17:35.662Z,3.80
2022-12-31T15:20:17.561Z,3.30
2022-12-31T15:22:47.938Z,3.22
2022-12-31T15:25:36.975Z,3.10
2022-12-31T15:28:38.127Z,3.10
2022-12-31T15:31:19.908Z,2.80
2022-12-31T15:34:06.881Z,2.90
2022-12-31T15:36:38.669Z,2.67
2022-12-31T15:39:11.127Z,2.25
2022-12-31T15:42:10.306Z,2.70
2022-12-31T15:44:56.641Z,2.50
2022-12-31T15:47:41.566Z,2.63
2022-12-31T15:50:17.146Z,2.70
2022-12-31T15:52:55.053Z,2.88
2022-12-31T15:55:32.723Z,3.03
2022-12-31T15:58:05.343Z,2.92
2022-12-31T16:00:50.485Z,2.67
2022-12-31T16:03:24.167Z,2.63
2022-12-31T16:05:54.427Z,2.83
2022-12-31T16:08:24.652Z,3.10
2022-12-31T16:10:54.551Z,2.65
2022-12-31T16:13:23.974Z,3.20
2022-12-31T16:16:03.399Z,3.30
2022-12-31T16:18:41.983Z,3.42
2022-12-31T16:21:34.756Z,2.90
2022-12-31T16:24:07.624Z,3.63
2022-12-31T16:26:45.927Z,3.40
2022-12-31T16:29:18.565Z,3.50
2022-12-31T16:31:46.972Z,4.00
2022-12-31T16:34:21.943Z,3.38
2022-12-31T16:36:59.947Z,3.30
2022-12-31T16:39:52.908Z,3.30
2022-12-31T16:42:21.485Z,3.33
2022-12-31T16:44:50.948Z,3.30
2022-12-31T16:47:33.683Z,3.60
2022-12-31T16:50:13.319Z,3.22
2022-12-31T16:52:42.916Z,3.38
2022-12-31T16:55:16.855Z,3.00
2022-12-31T16:57:47.551Z,3.55
2022-12-31T17:00:18.026Z,3.47
2022-12-31T17:02:58.460Z,3.10
2022-12-31T17:05:27.795Z,3.78
2022-12-31T17:07:55.094Z,3.70
2022-12-31T17:10:25.060Z,3.60
2022-12-31T17:13:27.242Z,3.47
2022-12-31T17:15:45.952Z,3.50
2022-12-31T17:18:24.243Z,3.22
2022-12-31T17:20:53.300Z,3.13
2022-12-31T17:23:25.347Z,3.38
2022-12-31T17:26:01.088Z,3.20
2022-12-31T17:28:43.341Z,3.60
2022-12-31T17:31:27.507Z,3.60
2022-12-31T17:34:04.289Z,3.53
2022-12-31T17:36:31.393Z,3.38
2022-12-31T17:39:18.044Z,3.50
2022-12-31T17:41:46.545Z,3.00
2022-12-31T17:44:29.438Z,2.63
2022-12-31T17:46:58.011Z,2.72
2022-12-31T17:49:30.963Z,2.15
2022-12-31T17:52:00.668Z,2.50
2022-12-31T17:54:27.507Z,2.38
2022-12-31T17:56:54.746Z,2.45
2022-12-31T17:59:24.569Z,3.00
2022-12-31T18:01:52.471Z,2.63
2022-12-31T18:04:20.731Z,2.97
2022-12-31T18:06:47.916Z,3.15
2022-12-31T18:09:16.435Z,2.85
2022-12-31T18:11:45.148Z,2.90
2022-12-31T18:14:16.503Z,2.90
2022-12-31T18:16:44.508Z,2.67
2022-12-31T18:19:37.890Z,2.78
2022-12-31T18:22:02.783Z,2.85
2022-12-31T18:24:29.974Z,3.35
2022-12-31T18:26:56.981Z,3.38
2022-12-31T18:29:24.534Z,2.85
2022-12-31T18:31:52.111Z,2.85
2022-12-31T18:34:19.668Z,2.78
2022-12-31T18:36:46.782Z,3.13
2022-12-31T18:39:13.751Z,3.13
2022-12-31T18:41:45.816Z,3.08
2022-12-31T18:44:14.842Z,3.20
2022-12-31T18:46:42.740Z,3.22
2022-12-31T18:49:09.563Z,3.40
2022-12-31T18:51:36.945Z,3.83
2022-12-31T18:54:04.994Z,3.42
2022-12-31T18:56:32.537Z,4.10
2022-12-31T18:58:59.843Z,3.67
2022-12-31T19:01:35.451Z,3.97
2022-12-31T19:04:05.214Z,3.60
2022-12-31T19:06:32.663Z,3.80
2022-12-31T19:09:01.124Z,3.47
2022-12-31T19:11:32.933Z,3.50
2022-12-31T19:13:59.965Z,3.67
2022-12-31T19:16:27.207Z,3.53
2022-12-31T19:18:54.279Z,3.53
2022-12-31T19:21:23.777Z,3.50
2022-12-31T19:23:51.210Z,3.08
2022-12-31T19:26:21.696Z,2.97
2022-12-31T19:28:50.388Z,3.25
2022-12-31T19:31:18.053Z,3.03
2022-12-31T19:33:45.173Z,3.00
2022-12-31T19:36:17.595Z,3.53
2022-12-31T19:38:45.368Z,3.03
2022-12-31T19:41:18.309Z,3.30
2022-12-31T19:43:45.590Z,2.92
2022-12-31T19:46:18.078Z,3.28
2022-12-31T19:48:45.597Z,3.08
2022-12-31T19:51:19.022Z,3.33
2022-12-31T19:53:47.254Z,3.65
2022-12-31T19:56:18.420Z,3.47
2022-12-31T19:58:46.162Z,3.67
2022-12-31T20:01:20.664Z,3.17
2022-12-31T20:03:48.477Z,3.30
2022-12-31T20:06:17.196Z,3.37
2022-12-31T20:08:44.265Z,3.57
2022-12-31T20:11:14.202Z,3.77
2022-12-31T20:13:41.815Z,3.37
2022-12-31T20:16:11.969Z,3.38
2022-12-31T20:18:40.877Z,3.22
2022-12-31T20:21:20.320Z,3.67
2022-12-31T20:23:48.981Z,3.20
2022-12-31T20:26:17.126Z,3.10
2022-12-31T20:28:44.008Z,3.33
2022-12-31T20:31:15.367Z,3.10
2022-12-31T20:33:42.388Z,2.95
2022-12-31T20:36:12.097Z,3.10
2022-12-31T20:38:39.029Z,2.95
2022-12-31T20:41:08.948Z,3.28
2022-12-31T20:43:36.757Z,3.22
2022-12-31T20:46:15.758Z,6.78
2022-12-31T20:48:44.234Z,3.58
2022-12-31T20:51:12.507Z,4.22
2022-12-31T20:53:39.502Z,2.88
2022-12-31T20:56:08.576Z,3.22
2022-12-31T20:58:35.912Z,2.80
2022-12-31T21:01:06.884Z,2.75
2022-12-31T21:06:25.943Z,3.30
2022-12-31T21:08:54.405Z,2.60
2022-12-31T21:11:40.082Z,2.90
2022-12-31T21:14:07.005Z,2.40
2022-12-31T21:16:34.049Z,2.70
2022-12-31T21:19:01.585Z,2.58
2022-12-31T21:21:28.723Z,2.75
2022-12-31T21:23:55.578Z,2.75
2022-12-31T21:26:22.809Z,2.60
2022-12-31T21:28:49.661Z,2.85
2022-12-31T21:31:16.732Z,3.00
2022-12-31T21:33:45.218Z,2.70
2022-12-31T21:36:13.265Z,3.07
2022-12-31T21:38:40.329Z,3.28
2022-12-31T21:41:33.219Z,3.35
2022-12-31T21:44:00.251Z,2.50
2022-12-31T21:46:27.370Z,2.75
2022-12-31T21:48:56.176Z,3.10
2022-12-31T21:51:24.056Z,3.00
2022-12-31T21:53:51.288Z,2.83
2022-12-31T21:56:21.199Z,3.43
2022-12-31T21:59:15.361Z,3.00
2022-12-31T22:02:01.162Z,2.92
2022-12-31T22:05:01.833Z,3.37
2022-12-31T22:07:15.322Z,3.10
2022-12-31T22:09:42.163Z,3.23
2022-12-31T22:12:09.171Z,2.97
2022-12-31T22:14:36.057Z,3.25
2022-12-31T22:17:03.346Z,3.25
2022-12-31T22:19:30.280Z,2.95
2022-12-31T22:21:57.481Z,3.58
2022-12-31T22:24:24.349Z,3.20
2022-12-31T22:26:53.866Z,2.90
2022-12-31T22:29:21.553Z,2.97
2022-12-31T22:31:48.573Z,3.05
2022-12-31T22:34:15.479Z,2.67
2022-12-31T22:36:42.485Z,3.00
2022-12-31T22:39:14.328Z,2.85
2022-12-31T22:42:01.398Z,3.20
2022-12-31T22:44:28.161Z,3.20
2022-12-31T22:46:56.276Z,2.50
2022-12-31T22:49:23.329Z,2.70
2022-12-31T22:51:55.741Z,3.22
2022-12-31T22:54:24.275Z,3.45
2022-12-31T22:56:51.347Z,2.88
2022-12-31T22:59:18.181Z,3.35
2022-12-31T23:01:45.244Z,29.17
2022-12-31T23:04:12.193Z,13.55
2022-12-31T23:06:45.219Z,22.80
2022-12-31T23:09:32.859Z,10.48
2022-12-31T23:12:01.493Z,8.18
2022-12-31T23:14:47.007Z,3.80
2022-12-31T23:17:36.512Z,8.68
2022-12-31T23:20:24.960Z,6.30
2022-12-31T23:23:10.449Z,4.90
2022-12-31T23:25:50.975Z,5.63
2022-12-31T23:28:21.009Z,6.90
2022-12-31T23:30:48.090Z,6.63
2022-12-31T23:33:18.379Z,7.97
2022-12-31T23:35:45.836Z,7.78
2022-12-31T23:38:13.666Z,7.55
2022-12-31T23:40:40.502Z,6.00
2022-12-31T23:43:08.687Z,5.80
2022-12-31T23:45:36.306Z,5.93
2022-12-31T23:48:04.205Z,5.55
2022-12-31T23:50:31.107Z,4.82
2022-12-31T23:52:58.205Z,4.90
2022-12-31T23:55:25.019Z,3.95
2022-12-31T23:57:52.010Z,3.88
